Time;durP1;ratioP1;P1;durP2;ratioP2;P2;SDS_P1;SDS_P2;PMS_P1;PMS_P2;Temp;Humidity;BMP_temperature;BMP_pressure;BME280_temperature;BME280_humidity;BME280_pressure;Samples;Min_cycle;Max_cycle;Signal;HPM_P1;HPM_P2
2024/01/09 00:01:13;;;;;;;12.60;8.43;;;2.60;68.10;0.50;97025.00;;;;5052330;28;20531;-75
2024/01/09 00:03:40;;;;;;;11.30;7.70;;;2.60;67.90;0.40;97033.00;;;;5058406;28;20875;-75
2024/01/09 00:06:13;;;;;;;10.30;7.13;;;2.50;67.70;0.40;97035.00;;;;5059434;28;20477;-75
2024/01/09 00:08:40;;;;;;;11.53;7.47;;;2.50;67.30;0.30;97034.00;;;;5057289;28;20489;-75
2024/01/09 00:11:13;;;;;;;11.70;7.70;;;2.40;67.30;0.30;97031.00;;;;5055872;28;20533;-75
2024/01/09 00:13:41;;;;;;;10.07;6.73;;;2.40;67.10;0.20;97032.00;;;;5057152;28;21032;-75
2024/01/09 00:16:08;;;;;;;9.97;7.80;;;2.30;66.80;0.20;97025.00;;;;5058260;28;20448;-74
2024/01/09 00:18:36;;;;;;;11.57;7.70;;;2.30;66.70;0.10;97024.00;;;;5060989;28;20485;-74
2024/01/09 00:21:03;;;;;;;10.70;7.80;;;2.20;66.60;0.00;97031.00;;;;5055568;28;20478;-75
2024/01/09 00:23:30;;;;;;;11.03;7.97;;;2.20;66.40;0.00;97030.00;;;;5048246;28;20454;-75
2024/01/09 00:25:57;;;;;;;10.93;7.93;;;2.10;66.50;-0.10;97034.00;;;;5050839;28;20490;-75
2024/01/09 00:28:26;;;;;;;11.80;7.80;;;2.10;66.80;-0.10;97042.00;;;;5071857;28;20560;-74
2024/01/09 00:30:55;;;;;;;11.83;7.80;;;2.00;67.10;-0.20;97038.00;;;;5077533;28;20898;-74
2024/01/09 00:33:22;;;;;;;11.90;7.53;;;2.00;67.10;-0.20;97045.00;;;;5077977;28;20516;-74
2024/01/09 00:35:49;;;;;;;12.27;8.17;;;1.90;67.20;-0.20;97033.00;;;;5078153;28;20990;-74
2024/01/09 00:38:16;;;;;;;12.33;7.63;;;1.90;67.10;-0.30;97033.00;;;;5072103;28;20442;-74
2024/01/09 00:40:44;;;;;;;11.70;8.17;;;1.90;67.00;-0.30;97027.00;;;;5071005;28;20534;-74
2024/01/09 00:43:12;;;;;;;12.43;8.63;;;1.80;67.10;-0.40;97035.00;;;;5075737;28;20439;-74
2024/01/09 00:45:40;;;;;;;11.00;7.53;;;1.80;67.30;-0.40;97042.00;;;;5070960;28;20527;-74
2024/01/09 00:48:08;;;;;;;16.03;9.23;;;1.70;67.20;-0.40;97035.00;;;;5071148;28;20529;-74
2024/01/09 00:50:36;;;;;;;12.63;8.50;;;1.70;67.00;-0.50;97040.00;;;;5071607;28;20449;-74
2024/01/09 00:53:05;;;;;;;11.67;8.00;;;1.70;66.90;-0.50;97039.00;;;;5065190;28;20546;-74
2024/01/09 00:55:33;;;;;;;11.73;7.70;;;1.60;66.70;-0.50;97039.00;;;;5065088;28;20561;-74
2024/01/09 00:58:00;;;;;;;12.33;8.83;;;1.60;66.70;-0.60;97040.00;;;;5074524;28;20442;-74
2024/01/09 01:00:27;;;;;;;11.73;7.90;;;1.60;66.60;-0.60;97036.00;;;;5074362;28;20480;-74
2024/01/09 01:02:56;;;;;;;11.23;7.70;;;1.50;66.40;-0.70;97033.00;;;;5076253;28;20485;-74
2024/01/09 01:05:23;;;;;;;14.10;9.03;;;1.50;66.70;-0.70;97046.00;;;;5072634;28;20442;-74
2024/01/09 01:07:50;;;;;;;12.33;7.47;;;1.50;66.90;-0.70;97040.00;;;;5076439;28;20471;-74
2024/01/09 01:10:18;;;;;;;13.37;8.03;;;1.40;66.70;-0.80;97040.00;;;;5070614;28;20470;-74
2024/01/09 01:12:45;;;;;;;11.53;8.30;;;1.40;66.90;-0.80;97038.00;;;;5072244;28;20536;-74
2024/01/09 01:15:12;;;;;;;11.73;8.37;;;1.40;66.80;-0.80;97046.00;;;;5071001;28;20478;-74
2024/01/09 01:17:39;;;;;;;11.70;7.97;;;1.40;66.90;-0.80;97039.00;;;;5072916;28;20533;-74
2024/01/09 01:20:10;;;;;;;11.70;7.60;;;1.30;66.70;-0.80;97042.00;;;;5071556;28;20545;-74
2024/01/09 01:22:37;;;;;;;13.40;8.03;;;1.30;67.00;-0.80;97054.00;;;;5070717;28;20536;-74
2024/01/09 01:25:05;;;;;;;14.00;8.30;;;1.40;67.20;-0.80;97047.00;;;;5066790;28;20530;-74
2024/01/09 01:27:32;;;;;;;13.30;7.87;;;1.30;66.90;-0.80;97043.00;;;;5078494;28;20493;-74
2024/01/09 01:29:59;;;;;;;11.50;8.17;;;1.30;66.70;-0.80;97044.00;;;;5071975;28;20552;-74
2024/01/09 01:32:27;;;;;;;13.17;8.30;;;1.30;66.90;-0.80;97042.00;;;;5062766;28;20450;-74
2024/01/09 01:34:54;;;;;;;12.87;8.17;;;1.30;66.70;-0.80;97036.00;;;;5075264;28;20557;-74
2024/01/09 01:37:22;;;;;;;11.40;7.87;;;1.30;66.80;-0.80;97044.00;;;;5071922;28;21029;-74
2024/01/09 01:39:49;;;;;;;12.60;8.00;;;1.30;66.40;-0.80;97044.00;;;;5070945;28;20577;-74
2024/01/09 01:42:16;;;;;;;13.73;8.67;;;1.30;66.40;-0.80;97042.00;;;;5070881;28;20446;-74
2024/01/09 01:44:44;;;;;;;13.27;8.13;;;1.30;66.60;-0.80;97036.00;;;;5072069;28;20719;-74
2024/01/09 01:47:11;;;;;;;14.00;8.17;;;1.30;66.80;-0.80;97042.00;;;;5068593;28;20529;-74
2024/01/09 01:49:39;;;;;;;15.37;9.00;;;1.30;66.60;-0.80;97041.00;;;;5072613;28;20508;-74
2024/01/09 01:52:09;;;;;;;13.73;8.80;;;1.30;67.50;-0.80;97046.00;;;;5068991;28;20469;-74
2024/01/09 01:54:40;;;;;;;12.40;8.10;;;1.40;67.00;-0.80;97035.00;;;;5068530;28;20557;-74
2024/01/09 01:57:10;;;;;;;13.13;8.60;;;1.40;66.60;-0.80;97040.00;;;;5088842;28;20446;-74
2024/01/09 01:59:43;;;;;;;12.90;8.40;;;1.40;66.70;-0.80;97043.00;;;;5071389;28;20450;-74
2024/01/09 02:02:15;;;;;;;13.23;8.60;;;1.40;67.10;-0.80;97042.00;;;;5074104;28;20458;-74
2024/01/09 02:04:45;;;;;;;14.47;8.60;;;1.40;67.10;-0.80;97042.00;;;;5071341;28;20925;-74
2024/01/09 02:07:12;;;;;;;14.73;8.53;;;1.40;66.60;-0.80;97042.00;;;;5071352;28;20509;-74
2024/01/09 02:09:42;;;;;;;12.70;8.60;;;1.40;66.40;-0.80;97042.00;;;;5075494;28;20490;-74
2024/01/09 02:12:11;;;;;;;13.27;9.03;;;1.30;66.30;-0.80;97043.00;;;;5068978;28;20442;-74
2024/01/09 02:14:38;;;;;;;13.77;9.07;;;1.30;66.20;-0.80;97041.00;;;;5090886;28;20473;-74
2024/01/09 02:17:05;;;;;;;15.83;9.60;;;1.30;66.40;-0.90;97046.00;;;;5070803;28;20998;-74
2024/01/09 02:19:34;;;;;;;12.60;8.37;;;1.30;66.50;-0.90;97045.00;;;;5072481;28;20987;-74
2024/01/09 02:22:01;;;;;;;13.93;8.87;;;1.30;66.10;-0.90;97043.00;;;;5072409;28;20830;-73
2024/01/09 02:24:28;;;;;;;12.60;8.93;;;1.20;65.80;-1.00;97042.00;;;;5070403;28;21030;-74
2024/01/09 02:27:12;;;;;;;12.83;8.63;;;1.20;66.00;-1.00;97042.00;;;;5071960;28;20481;-74
2024/01/09 02:29:49;;;;;;;12.87;8.50;;;1.20;65.90;-1.10;97045.00;;;;5067294;28;20492;-74
2024/01/09 02:32:17;;;;;;;12.47;8.57;;;1.10;66.30;-1.10;97029.00;;;;5070309;28;20438;-74
2024/01/09 02:34:49;;;;;;;15.47;9.17;;;1.10;66.30;-1.10;97026.00;;;;5084682;28;20462;-73
2024/01/09 02:37:16;;;;;;;15.20;9.07;;;1.10;66.50;-1.10;97028.00;;;;5068800;28;20503;-74
2024/01/09 02:39:44;;;;;;;13.30;8.77;;;1.10;66.50;-1.10;97025.00;;;;5081652;28;20459;-74
2024/01/09 02:42:12;;;;;;;13.73;9.57;;;1.00;66.40;-1.20;97026.00;;;;5069451;28;20488;-74
2024/01/09 02:44:40;;;;;;;14.10;9.97;;;1.00;66.40;-1.20;97020.00;;;;5076392;28;20484;-74
2024/01/09 02:47:09;;;;;;;13.33;9.23;;;1.00;66.60;-1.20;97018.00;;;;5069794;28;20477;-74
2024/01/09 02:49:37;;;;;;;13.90;8.50;;;1.00;66.30;-1.20;97019.00;;;;5077271;28;20516;-74
2024/01/09 02:52:05;;;;;;;12.30;8.57;;;0.90;66.10;-1.30;97017.00;;;;5077825;28;20479;-74
2024/01/09 02:54:32;;;;;;;15.20;9.40;;;0.90;65.90;-1.30;97015.00;;;;5086613;28;20462;-74
2024/01/09 02:56:59;;;;;;;12.37;8.63;;;0.90;66.30;-1.30;97015.00;;;;5077823;28;20525;-74
2024/01/09 02:59:27;;;;;;;15.00;8.70;;;0.90;66.50;-1.40;97013.00;;;;5069418;28;20541;-73
2024/01/09 03:01:54;;;;;;;14.90;8.67;;;0.80;66.50;-1.40;97013.00;;;;5068210;28;20526;-74
2024/01/09 03:04:22;;;;;;;10.50;8.27;;;0.80;66.70;-1.40;97009.00;;;;5072887;28;20442;-74
2024/01/09 03:06:50;;;;;;;13.97;8.83;;;0.80;66.90;-1.40;97013.00;;;;5074935;28;20875;-74
2024/01/09 03:09:17;;;;;;;12.97;8.63;;;0.80;67.00;-1.40;97015.00;;;;5080121;28;21031;-73
2024/01/09 03:11:45;;;;;;;14.53;8.73;;;0.80;67.00;-1.50;97005.00;;;;5090178;28;20438;-73
2024/01/09 03:14:13;;;;;;;12.80;8.60;;;0.70;66.60;-1.50;97018.00;;;;5080711;28;20443;-73
2024/01/09 03:16:40;;;;;;;13.13;8.73;;;0.70;66.70;-1.50;97016.00;;;;5083101;28;20537;-74
2024/01/09 03:19:07;;;;;;;13.20;8.93;;;0.70;66.50;-1.50;97007.00;;;;5074640;28;20542;-73
2024/01/09 03:21:36;;;;;;;12.57;8.70;;;0.70;66.90;-1.50;97015.00;;;;5072585;28;20470;-73
2024/01/09 03:24:04;;;;;;;13.03;8.40;;;0.70;66.90;-1.60;97017.00;;;;5079458;28;20516;-74
2024/01/09 03:26:31;;;;;;;13.07;8.70;;;0.70;66.70;-1.60;97017.00;;;;5075426;28;20892;-74
2024/01/09 03:28:59;;;;;;;12.17;8.60;;;0.60;66.80;-1.60;97007.00;;;;5072557;28;20548;-74
2024/01/09 03:31:27;;;;;;;14.00;8.83;;;0.50;67.00;-1.60;97016.00;;;;5073610;28;20434;-73
2024/01/09 03:33:55;;;;;;;13.33;9.10;;;0.60;66.90;-1.60;97020.00;;;;5074199;28;20533;-74
2024/01/09 03:36:23;;;;;;;12.73;9.00;;;0.60;66.80;-1.70;97024.00;;;;5075785;28;20468;-73
2024/01/09 03:38:53;;;;;;;14.63;9.70;;;0.60;66.70;-1.70;97026.00;;;;5076933;28;20473;-73
2024/01/09 03:41:20;;;;;;;14.37;8.83;;;0.50;66.40;-1.70;97020.00;;;;5074002;28;20446;-73
2024/01/09 03:43:48;;;;;;;13.37;8.87;;;0.50;66.40;-1.70;97022.00;;;;5078480;28;20525;-73
2024/01/09 03:46:15;;;;;;;14.33;9.33;;;0.50;66.50;-1.80;97015.00;;;;5084109;28;20453;-73
2024/01/09 03:48:42;;;;;;;14.93;9.40;;;0.50;66.50;-1.80;97012.00;;;;5077652;28;20496;-73
2024/01/09 03:51:09;;;;;;;16.53;9.27;;;0.50;66.40;-1.80;97017.00;;;;5075876;28;20434;-73
2024/01/09 03:53:37;;;;;;;16.30;9.63;;;0.40;66.10;-1.90;97012.00;;;;5068412;28;20457;-73
2024/01/09 03:56:06;;;;;;;15.00;9.63;;;0.40;66.40;-1.90;97019.00;;;;5074756;28;20462;-73
2024/01/09 03:58:33;;;;;;;16.93;10.47;;;0.40;66.50;-1.90;97013.00;;;;5073921;28;20557;-74
2024/01/09 04:01:01;;;;;;;15.27;10.00;;;0.40;66.50;-1.90;97014.00;;;;5079665;28;20520;-74
2024/01/09 04:03:28;;;;;;;15.27;9.73;;;0.40;66.70;-1.90;97012.00;;;;5073673;28;21002;-73
2024/01/09 04:05:55;;;;;;;15.97;10.37;;;0.30;66.40;-2.00;97012.00;;;;5073417;28;20541;-74
2024/01/09 04:08:22;;;;;;;13.83;9.43;;;0.30;66.40;-2.00;97008.00;;;;5072136;28;20558;-73
2024/01/09 04:10:49;;;;;;;15.83;9.87;;;0.30;66.40;-2.00;97014.00;;;;5075052;28;21016;-73
2024/01/09 04:13:20;;;;;;;14.47;9.00;;;0.30;66.20;-2.00;97014.00;;;;5079238;28;20529;-73
2024/01/09 04:15:48;;;;;;;18.23;10.37;;;0.30;66.30;-2.00;97013.00;;;;5072719;28;20519;-74
2024/01/09 04:18:15;;;;;;;14.73;9.50;;;0.30;66.50;-2.00;97022.00;;;;5070858;28;20438;-73
2024/01/09 04:20:43;;;;;;;13.63;9.37;;;0.30;66.40;-2.00;97018.00;;;;5078682;28;20442;-74
2024/01/09 04:23:10;;;;;;;14.67;8.87;;;0.30;66.50;-2.00;97020.00;;;;5071257;28;20519;-73
2024/01/09 04:25:38;;;;;;;19.10;10.70;;;0.30;66.40;-2.00;97016.00;;;;5076264;28;20462;-73
2024/01/09 04:28:05;;;;;;;17.23;9.77;;;0.20;66.40;-2.00;97012.00;;;;5072038;28;20521;-74
2024/01/09 04:30:34;;;;;;;14.60;9.27;;;0.30;66.70;-2.00;97019.00;;;;5072749;28;20707;-73
2024/01/09 04:33:01;;;;;;;15.83;9.53;;;0.20;66.30;-2.00;97021.00;;;;5072250;28;20525;-73
2024/01/09 04:35:28;;;;;;;16.33;10.40;;;0.20;66.10;-2.00;97011.00;;;;5072877;28;20470;-73
2024/01/09 04:37:55;;;;;;;14.20;9.13;;;0.20;65.90;-2.00;97010.00;;;;5080459;28;20994;-73
2024/01/09 04:40:23;;;;;;;14.57;9.40;;;0.20;65.90;-2.00;97017.00;;;;5071235;28;20501;-73
2024/01/09 04:42:50;;;;;;;16.03;10.77;;;0.20;66.00;-2.10;97010.00;;;;5072612;28;20445;-74
2024/01/09 04:45:18;;;;;;;15.37;9.10;;;0.20;65.90;-2.10;97010.00;;;;5073695;28;20786;-74
2024/01/09 04:47:47;;;;;;;14.43;9.30;;;0.20;66.20;-2.10;97009.00;;;;5071907;28;20541;-74
2024/01/09 04:50:14;;;;;;;13.97;8.73;;;0.20;66.10;-2.10;97018.00;;;;5079095;28;20977;-73
2024/01/09 04:52:41;;;;;;;16.67;9.90;;;0.20;66.00;-2.10;97014.00;;;;5071162;28;20442;-73
2024/01/09 04:55:11;;;;;;;14.97;9.50;;;0.20;66.20;-2.10;97014.00;;;;5071833;28;20566;-74
2024/01/09 04:57:38;;;;;;;15.90;9.43;;;0.20;66.20;-2.10;97013.00;;;;5079412;28;20485;-73
2024/01/09 05:00:10;;;;;;;16.80;10.03;;;0.10;65.80;-2.10;97015.00;;;;5088140;28;20549;-74
2024/01/09 05:02:38;;;;;;;18.27;9.57;;;0.10;66.10;-2.10;97018.00;;;;5074004;28;21017;-73
2024/01/09 05:05:07;;;;;;;15.90;8.80;;;0.10;66.20;-2.10;97017.00;;;;5072458;28;20804;-73
2024/01/09 05:07:35;;;;;;;14.37;9.60;;;0.20;66.20;-2.10;97019.00;;;;5071987;28;20470;-73
2024/01/09 05:10:02;;;;;;;16.00;9.10;;;0.20;66.40;-2.10;97018.00;;;;5069659;28;20468;-73
2024/01/09 05:12:29;;;;;;;12.67;8.70;;;0.20;66.70;-2.10;97017.00;;;;5070539;28;20862;-73
2024/01/09 05:14:57;;;;;;;16.03;9.60;;;0.20;66.70;-2.10;97013.00;;;;5072236;28;20446;-73
2024/01/09 05:17:24;;;;;;;15.87;9.97;;;0.10;66.60;-2.10;97025.00;;;;5074109;28;20637;-73
2024/01/09 05:19:50;;;;;;;15.93;9.70;;;0.10;66.30;-2.10;97007.00;;;;5071810;28;20507;-73
2024/01/09 05:22:18;;;;;;;13.53;9.13;;;0.10;66.30;-2.10;97020.00;;;;5069862;28;20438;-73
2024/01/09 05:24:46;;;;;;;15.97;9.70;;;0.10;66.40;-2.10;97029.00;;;;5069797;28;20529;-73
2024/01/09 05:27:13;;;;;;;15.50;9.43;;;0.10;66.60;-2.10;97028.00;;;;5072190;28;21001;-73
2024/01/09 05:29:41;;;;;;;15.63;9.33;;;0.10;66.40;-2.10;97023.00;;;;5069452;28;20490;-73
2024/01/09 05:32:08;;;;;;;14.20;9.63;;;0.10;66.30;-2.10;97017.00;;;;5073360;28;20533;-74
2024/01/09 05:34:35;;;;;;;14.93;9.87;;;0.10;66.20;-2.20;97022.00;;;;5072051;28;20438;-74
2024/01/09 05:37:03;;;;;;;16.30;9.50;;;0.10;66.50;-2.20;97025.00;;;;5074695;28;20469;-73
2024/01/09 05:39:31;;;;;;;15.97;10.30;;;0.10;67.30;-2.20;97027.00;;;;5071610;28;20493;-73
2024/01/09 05:41:59;;;;;;;15.47;9.20;;;0.10;66.40;-2.20;97021.00;;;;5075805;28;20513;-73
2024/01/09 05:44:27;;;;;;;14.93;8.53;;;0.10;66.30;-2.20;97015.00;;;;5071480;28;20513;-74
2024/01/09 05:46:54;;;;;;;14.53;9.47;;;0.00;66.00;-2.20;97017.00;;;;5073476;28;20484;-73
2024/01/09 05:49:21;;;;;;;16.40;9.60;;;0.10;66.00;-2.20;97018.00;;;;5077159;28;20477;-73
2024/01/09 05:51:49;;;;;;;14.83;9.53;;;0.00;66.00;-2.20;97010.00;;;;5071849;28;20526;-73
2024/01/09 05:54:16;;;;;;;16.33;9.97;;;0.00;65.60;-2.30;97021.00;;;;5071524;28;20533;-73
2024/01/09 05:56:44;;;;;;;13.83;9.13;;;0.00;65.50;-2.30;97026.00;;;;5069149;28;20498;-73
2024/01/09 05:59:11;;;;;;;15.03;9.57;;;0.00;65.90;-2.30;97030.00;;;;5070901;28;20537;-74
2024/01/09 06:01:39;;;;;;;16.77;9.73;;;0.00;66.00;-2.30;97026.00;;;;5078998;28;20473;-73
2024/01/09 06:04:07;;;;;;;15.13;9.33;;;0.00;65.90;-2.30;97032.00;;;;5071659;28;20473;-74
2024/01/09 06:06:34;;;;;;;17.27;9.30;;;0.00;66.00;-2.30;97033.00;;;;5078140;28;20554;-73
2024/01/09 06:09:01;;;;;;;15.40;8.93;;;0.00;65.80;-2.30;97040.00;;;;5090656;28;21050;-74
2024/01/09 06:11:29;;;;;;;13.07;8.77;;;0.00;65.70;-2.30;97041.00;;;;5087022;28;20438;-73
2024/01/09 06:13:58;;;;;;;15.30;9.33;;;0.00;66.60;-2.30;97039.00;;;;5077704;28;20442;-74
2024/01/09 06:16:25;;;;;;;13.97;9.00;;;0.00;65.80;-2.30;97042.00;;;;5070046;28;20466;-73
2024/01/09 06:18:52;;;;;;;15.83;9.00;;;0.00;65.60;-2.30;97038.00;;;;5078842;28;20462;-73
2024/01/09 06:21:20;;;;;;;15.77;9.13;;;-0.10;65.70;-2.30;97035.00;;;;5070352;28;20525;-73
2024/01/09 06:23:48;;;;;;;17.03;9.30;;;-0.10;65.70;-2.30;97042.00;;;;5070168;28;20447;-73
2024/01/09 06:26:15;;;;;;;17.57;10.13;;;-0.10;65.90;-2.30;97044.00;;;;5074698;28;20454;-73
2024/01/09 06:28:43;;;;;;;16.53;9.17;;;-0.10;65.80;-2.30;97043.00;;;;5063667;28;20493;-73
2024/01/09 06:31:12;;;;;;;16.83;9.00;;;-0.10;65.80;-2.30;97048.00;;;;5069398;28;20549;-73
2024/01/09 06:33:39;;;;;;;14.37;9.37;;;-0.10;65.80;-2.30;97045.00;;;;5065786;28;20547;-74
2024/01/09 06:36:08;;;;;;;14.43;9.30;;;-0.10;65.90;-2.40;97052.00;;;;5067631;28;20476;-76
2024/01/09 06:38:35;;;;;;;14.63;8.70;;;-0.10;65.60;-2.30;97049.00;;;;5072747;28;20557;-77
2024/01/09 06:41:02;;;;;;;16.43;9.10;;;-0.10;65.50;-2.30;97052.00;;;;5071025;28;20477;-75
2024/01/09 06:43:30;;;;;;;12.93;8.63;;;-0.10;65.80;-2.30;97050.00;;;;5079110;28;20466;-75
2024/01/09 06:45:58;;;;;;;14.67;8.97;;;0.00;65.80;-2.30;97050.00;;;;5069759;28;20507;-75
2024/01/09 06:48:26;;;;;;;13.97;9.27;;;0.00;65.60;-2.30;97060.00;;;;5077868;28;20496;-74
2024/01/09 06:50:53;;;;;;;15.07;9.67;;;0.00;65.80;-2.20;97060.00;;;;5074140;28;20530;-74
2024/01/09 06:53:21;;;;;;;14.23;8.77;;;0.10;65.90;-2.20;97068.00;;;;5069500;28;20490;-74
2024/01/09 06:55:48;;;;;;;17.10;9.73;;;0.10;65.70;-2.20;97063.00;;;;5074273;28;20505;-74
2024/01/09 06:58:16;;;;;;;14.10;8.97;;;0.10;65.50;-2.30;97073.00;;;;5069932;28;20530;-74
2024/01/09 07:00:43;;;;;;;14.90;9.43;;;0.10;65.60;-2.20;97071.00;;;;5072055;28;20474;-74
2024/01/09 07:03:11;;;;;;;13.80;8.57;;;0.10;65.50;-2.30;97065.00;;;;5070565;28;20703;-74
2024/01/09 07:05:39;;;;;;;16.03;9.13;;;0.10;65.20;-2.30;97080.00;;;;5068245;28;20474;-74
2024/01/09 07:08:07;;;;;;;15.90;9.57;;;0.10;65.00;-2.30;97074.00;;;;5070042;28;20472;-74
2024/01/09 07:10:35;;;;;;;16.93;9.50;;;0.10;65.00;-2.30;97075.00;;;;5068291;28;20442;-74
2024/01/09 07:13:03;;;;;;;17.70;9.30;;;0.10;65.00;-2.30;97078.00;;;;5068275;28;20529;-74
2024/01/09 07:15:30;;;;;;;15.90;9.73;;;0.00;65.60;-2.30;97082.00;;;;5084915;28;20447;-74
2024/01/09 07:17:58;;;;;;;12.83;8.87;;;0.10;65.20;-2.40;97079.00;;;;5069811;28;20525;-75
2024/01/09 07:20:25;;;;;;;15.10;9.60;;;0.10;65.20;-2.30;97082.00;;;;5070170;28;20545;-74
2024/01/09 07:22:54;;;;;;;15.77;9.57;;;0.00;65.30;-2.30;97080.00;;;;5070642;28;20438;-76
2024/01/09 07:25:21;;;;;;;15.30;9.33;;;0.00;65.50;-2.30;97084.00;;;;5073640;28;20469;-75
2024/01/09 07:27:48;;;;;;;15.77;10.13;;;0.00;65.00;-2.40;97077.00;;;;5072530;28;20485;-75
2024/01/09 07:30:16;;;;;;;14.87;9.00;;;0.00;65.10;-2.30;97087.00;;;;5073225;28;20833;-75
2024/01/09 07:32:43;;;;;;;16.63;8.60;;;0.00;65.20;-2.30;97083.00;;;;5070594;28;20450;-75
2024/01/09 07:35:11;;;;;;;14.67;9.10;;;0.00;65.00;-2.30;97085.00;;;;5070500;28;20449;-74
2024/01/09 07:37:38;;;;;;;13.27;8.87;;;0.00;65.10;-2.30;97081.00;;;;5075928;28;20457;-75
2024/01/09 07:40:09;;;;;;;15.67;9.43;;;0.10;65.30;-2.30;97084.00;;;;5072506;28;20458;-75
2024/01/09 07:42:37;;;;;;;16.30;10.63;;;0.10;65.00;-2.30;97090.00;;;;5073531;28;20481;-74
2024/01/09 07:45:05;;;;;;;14.23;8.87;;;0.00;65.00;-2.30;97080.00;;;;5067000;28;20450;-74
2024/01/09 07:47:32;;;;;;;16.13;9.40;;;0.10;65.00;-2.30;97096.00;;;;5069087;28;20942;-74
2024/01/09 07:50:00;;;;;;;17.17;9.27;;;0.10;65.00;-2.30;97098.00;;;;5077861;28;20540;-74
2024/01/09 07:52:27;;;;;;;15.47;9.90;;;0.10;64.90;-2.20;97092.00;;;;5073099;28;20519;-75
2024/01/09 07:54:54;;;;;;;14.17;9.10;;;0.10;65.00;-2.20;97094.00;;;;5073106;28;20526;-75
2024/01/09 07:57:24;;;;;;;17.30;10.20;;;0.10;64.80;-2.20;97091.00;;;;5075808;28;20902;-75
2024/01/09 07:59:51;;;;;;;15.73;9.90;;;0.10;64.60;-2.20;97091.00;;;;5070841;28;20500;-74
2024/01/09 08:02:18;;;;;;;15.07;8.97;;;0.10;64.70;-2.20;97085.00;;;;5074439;28;20857;-74
2024/01/09 08:04:45;;;;;;;16.03;8.73;;;0.10;64.80;-2.20;97091.00;;;;5065377;28;20462;-74
2024/01/09 08:07:12;;;;;;;17.47;9.90;;;0.10;64.80;-2.20;97098.00;;;;5071416;28;20505;-74
2024/01/09 08:09:40;;;;;;;15.80;9.37;;;0.10;64.70;-2.20;97091.00;;;;5071136;28;20502;-74
2024/01/09 08:12:08;;;;;;;14.60;9.80;;;0.20;64.80;-2.10;97096.00;;;;5070341;28;20438;-74
2024/01/09 08:14:37;;;;;;;14.83;8.67;;;0.20;64.70;-2.10;97092.00;;;;5078655;28;20807;-74
2024/01/09 08:17:05;;;;;;;15.97;9.77;;;0.20;64.70;-2.10;97095.00;;;;5070281;28;20524;-74
2024/01/09 08:19:33;;;;;;;15.47;9.70;;;0.20;64.70;-2.10;97097.00;;;;5084511;28;20465;-75
2024/01/09 08:22:00;;;;;;;16.30;9.27;;;0.30;64.90;-2.00;97098.00;;;;5076510;28;20525;-74
2024/01/09 08:24:27;;;;;;;14.63;9.20;;;0.30;65.00;-2.00;97106.00;;;;5073689;28;20778;-74
2024/01/09 08:26:55;;;;;;;13.83;8.93;;;0.30;64.90;-2.00;97106.00;;;;5075623;28;20454;-75
2024/01/09 08:29:26;;;;;;;12.60;8.67;;;0.30;65.00;-1.90;97099.00;;;;5072588;28;20543;-75
2024/01/09 08:31:55;;;;;;;14.87;9.23;;;0.40;65.00;-1.90;97101.00;;;;5074446;28;20442;-74
2024/01/09 08:34:23;;;;;;;14.83;8.77;;;0.40;65.00;-1.80;97102.00;;;;5075675;28;20477;-74
2024/01/09 08:36:54;;;;;;;14.50;9.10;;;0.40;65.20;-1.80;97101.00;;;;5080453;28;20465;-74
2024/01/09 08:39:21;;;;;;;15.40;9.40;;;0.50;65.20;-1.80;97107.00;;;;5069459;28;20470;-74
2024/01/09 08:41:49;;;;;;;15.10;9.00;;;0.50;65.10;-1.70;97113.00;;;;5070662;28;21005;-74
2024/01/09 08:44:17;;;;;;;14.00;9.20;;;0.50;64.70;-1.70;97112.00;;;;5071059;28;20816;-74
2024/01/09 08:46:44;;;;;;;18.20;9.17;;;0.60;64.90;-1.60;97111.00;;;;5070218;28;20709;-74
2024/01/09 08:49:13;;;;;;;15.87;8.97;;;0.60;65.10;-1.60;97112.00;;;;5069660;28;20810;-74
2024/01/09 08:51:40;;;;;;;12.97;8.40;;;0.70;65.10;-1.60;97106.00;;;;5072232;28;20457;-74
2024/01/09 08:54:09;;;;;;;16.37;9.43;;;0.70;64.60;-1.50;97112.00;;;;5072847;28;20534;-74
2024/01/09 08:56:36;;;;;;;14.47;9.20;;;0.70;64.40;-1.50;97111.00;;;;5083438;28;20505;-74
2024/01/09 08:59:03;;;;;;;15.33;10.23;;;0.80;64.60;-1.40;97105.00;;;;5082192;28;20476;-74
2024/01/09 09:01:35;;;;;;;14.10;9.07;;;0.80;64.80;-1.40;97112.00;;;;5079862;28;20537;-74
2024/01/09 09:04:03;;;;;;;14.60;9.20;;;0.90;64.80;-1.30;97102.00;;;;5074826;28;20927;-75
2024/01/09 09:06:31;;;;;;;14.97;8.83;;;0.90;64.70;-1.30;97123.00;;;;5076297;28;20443;-74
2024/01/09 09:08:59;;;;;;;15.07;9.27;;;1.00;64.90;-1.20;97124.00;;;;5072054;28;20458;-75
2024/01/09 09:11:26;;;;;;;15.93;9.63;;;1.00;64.90;-1.10;97121.00;;;;5068143;28;20802;-75
2024/01/09 09:13:53;;;;;;;14.53;9.50;;;1.10;65.00;-1.00;97123.00;;;;5089621;28;20961;-75
2024/01/09 09:16:22;;;;;;;15.70;9.47;;;1.20;65.00;-1.00;97128.00;;;;5085457;28;20561;-74
2024/01/09 09:18:49;;;;;;;13.93;8.80;;;1.20;64.60;-0.90;97125.00;;;;5072157;28;20513;-74
2024/01/09 09:21:19;;;;;;;16.03;9.50;;;1.30;64.50;-0.90;97126.00;;;;5079976;28;20468;-74
2024/01/09 09:23:47;;;;;;;12.90;8.03;;;1.30;64.30;-0.80;97125.00;;;;5076293;28;20994;-75
2024/01/09 09:26:15;;;;;;;16.03;9.63;;;1.40;64.40;-0.80;97129.00;;;;5072691;28;20541;-75
2024/01/09 09:28:44;;;;;;;15.40;8.77;;;1.40;64.40;-0.80;97128.00;;;;5070870;28;20549;-75
2024/01/09 09:31:11;;;;;;;12.87;8.73;;;1.50;65.00;-0.70;97136.00;;;;5078916;28;20450;-75
2024/01/09 09:33:38;;;;;;;12.37;8.33;;;1.50;64.20;-0.70;97135.00;;;;5076317;28;20538;-75
2024/01/09 09:36:06;;;;;;;14.57;9.47;;;1.60;64.00;-0.60;97127.00;;;;5068822;28;20504;-74
2024/01/09 09:38:34;;;;;;;14.90;9.43;;;1.60;64.10;-0.60;97140.00;;;;5070412;28;20553;-74
2024/01/09 09:41:07;;;;;;;15.17;9.63;;;1.60;64.10;-0.50;97127.00;;;;5069662;28;21026;-74
2024/01/09 09:43:36;;;;;;;13.30;8.57;;;1.70;63.90;-0.50;97134.00;;;;5074508;28;20533;-74
2024/01/09 09:46:04;;;;;;;14.10;9.13;;;1.70;64.00;-0.40;97138.00;;;;5070199;28;20516;-74
2024/01/09 09:48:33;;;;;;;15.10;8.80;;;1.80;64.10;-0.30;97138.00;;;;5076529;28;20462;-74
2024/01/09 09:51:04;;;;;;;14.20;9.27;;;1.80;64.10;-0.20;97147.00;;;;5071850;28;20530;-74
2024/01/09 09:53:32;;;;;;;15.50;9.53;;;1.90;64.60;-0.10;97140.00;;;;5075199;28;20469;-74
2024/01/09 09:55:59;;;;;;;14.43;8.93;;;2.00;65.20;0.10;97137.00;;;;5071792;28;20442;-74
2024/01/09 09:58:29;;;;;;;17.10;9.77;;;2.20;65.40;0.30;97143.00;;;;5071582;28;20474;-75
2024/01/09 10:00:59;;;;;;;12.97;8.77;;;2.30;65.40;0.50;97146.00;;;;5069978;28;20438;-75
2024/01/09 10:03:37;;;;;;;14.13;8.80;;;2.50;65.70;0.80;97146.00;;;;5083506;28;20190;-75
2024/01/09 10:06:06;;;;;;;13.17;8.50;;;2.70;65.50;1.00;97141.00;;;;5079643;28;20191;-75
2024/01/09 10:08:35;;;;;;;13.87;8.70;;;3.00;66.00;1.20;97147.00;;;;5075702;28;20204;-75
2024/01/09 10:11:03;;;;;;;14.60;8.97;;;3.20;66.00;1.50;97141.00;;;;5065070;28;20215;-75
2024/01/09 10:13:33;;;;;;;14.20;8.53;;;3.40;66.00;1.70;97151.00;;;;5069446;28;20198;-75
2024/01/09 10:16:02;;;;;;;14.17;8.40;;;3.70;66.10;1.90;97148.00;;;;5071398;28;20196;-76
2024/01/09 10:18:31;;;;;;;12.40;8.07;;;3.90;66.00;2.10;97148.00;;;;5079373;28;20628;-76
2024/01/09 10:20:59;;;;;;;15.67;8.80;;;4.10;65.90;2.30;97140.00;;;;5080823;28;20283;-76
2024/01/09 10:23:29;;;;;;;15.27;8.80;;;4.30;65.60;2.40;97143.00;;;;5070002;28;20714;-77
2024/01/09 10:25:57;;;;;;;13.27;8.33;;;4.40;66.10;2.60;97149.00;;;;5074532;28;20276;-76
2024/01/09 10:28:24;;;;;;;13.07;7.83;;;4.60;64.80;2.70;97152.00;;;;5068998;28;20200;-76
2024/01/09 10:30:54;;;;;;;16.57;9.43;;;4.70;64.90;2.80;97148.00;;;;5070084;28;20184;-76
2024/01/09 10:33:22;;;;;;;12.80;8.57;;;4.80;64.40;2.90;97133.00;;;;5070229;28;20192;-76
2024/01/09 10:35:50;;;;;;;13.03;8.37;;;4.90;64.60;2.90;97134.00;;;;5069727;28;20523;-76
2024/01/09 10:38:24;;;;;;;11.17;8.37;;;5.00;64.00;3.00;97140.00;;;;5070094;28;20212;-76
2024/01/09 10:40:56;;;;;;;13.70;8.57;;;5.10;63.30;3.00;97144.00;;;;5078205;28;20239;-76
2024/01/09 10:43:26;;;;;;;14.27;9.50;;;5.10;63.70;3.10;97128.00;;;;5071256;28;20192;-76
2024/01/09 10:45:55;;;;;;;13.57;7.93;;;5.20;63.50;3.10;97124.00;;;;5078890;28;20194;-77
2024/01/09 10:48:23;;;;;;;11.57;7.60;;;5.20;62.90;3.10;97123.00;;;;5069204;28;20243;-76
2024/01/09 10:50:52;;;;;;;12.43;8.50;;;5.20;62.50;3.00;97125.00;;;;5080469;28;20233;-76
2024/01/09 10:53:22;;;;;;;13.37;8.60;;;5.10;61.90;2.90;97122.00;;;;5071346;28;20595;-76
2024/01/09 10:55:51;;;;;;;13.27;8.23;;;5.00;61.60;2.80;97101.00;;;;5069818;28;20191;-76
2024/01/09 10:58:19;;;;;;;13.10;7.93;;;5.00;61.40;2.80;97108.00;;;;5070600;28;20314;-76